sensor_id;sensor_type;location;lat;lon;timestamp;temperature;humidity
21176;DHT22;10746;50.178;8.186;2023-04-09T00:01:03;6.60;99.90
21176;DHT22;10746;50.178;8.186;2023-04-09T00:03:30;6.50;99.90
21176;DHT22;10746;50.178;8.186;2023-04-09T00:05:57;6.60;99.90
21176;DHT22;10746;50.178;8.186;2023-04-09T00:08:24;6.50;99.90
21176;DHT22;10746;50.178;8.186;2023-04-09T00:10:51;6.50;99.90
21176;DHT22;10746;50.178;8.186;2023-04-09T00:13:19;6.50;99.90
21176;DHT22;10746;50.178;8.186;2023-04-09T00:15:47;6.50;99.90
21176;DHT22;10746;50.178;8.186;2023-04-09T00:18:14;6.50;99.90
21176;DHT22;10746;50.178;8.186;2023-04-09T00:20:42;6.50;99.90
21176;DHT22;10746;50.178;8.186;2023-04-09T00:23:09;6.50;99.90
21176;DHT22;10746;50.178;8.186;2023-04-09T00:25:36;6.50;99.90
21176;DHT22;10746;50.178;8.186;2023-04-09T00:28:02;6.50;99.90
21176;DHT22;10746;50.178;8.186;2023-04-09T00:30:29;6.50;99.90
21176;DHT22;10746;50.178;8.186;2023-04-09T00:32:57;6.50;99.90
21176;DHT22;10746;50.178;8.186;2023-04-09T00:35:24;6.40;99.90
21176;DHT22;10746;50.178;8.186;2023-04-09T00:37:51;6.50;99.90
21176;DHT22;10746;50.178;8.186;2023-04-09T00:40:18;6.50;99.90
21176;DHT22;10746;50.178;8.186;2023-04-09T00:42:44;6.40;99.90
21176;DHT22;10746;50.178;8.186;2023-04-09T00:45:12;6.40;99.90
21176;DHT22;10746;50.178;8.186;2023-04-09T00:47:39;6.40;99.90
21176;DHT22;10746;50.178;8.186;2023-04-09T00:50:09;6.40;99.90
21176;DHT22;10746;50.178;8.186;2023-04-09T00:52:36;6.50;99.90
21176;DHT22;10746;50.178;8.186;2023-04-09T00:55:04;6.40;99.90
21176;DHT22;10746;50.178;8.186;2023-04-09T00:57:31;6.40;99.90
21176;DHT22;10746;50.178;8.186;2023-04-09T00:59:58;6.50;99.90
21176;DHT22;10746;50.178;8.186;2023-04-09T01:02:25;6.30;99.90
21176;DHT22;10746;50.178;8.186;2023-04-09T01:04:52;6.30;99.90
21176;DHT22;10746;50.178;8.186;2023-04-09T01:07:27;6.30;99.90
21176;DHT22;10746;50.178;8.186;2023-04-09T01:10:03;6.40;99.90
21176;DHT22;10746;50.178;8.186;2023-04-09T01:12:32;6.40;99.90
21176;DHT22;10746;50.178;8.186;2023-04-09T01:15:04;6.40;99.90
21176;DHT22;10746;50.178;8.186;2023-04-09T01:17:34;6.40;99.90
21176;DHT22;10746;50.178;8.186;2023-04-09T01:20:07;6.40;99.90
21176;DHT22;10746;50.178;8.186;2023-04-09T01:22:48;6.40;99.90
21176;DHT22;10746;50.178;8.186;2023-04-09T01:25:32;6.40;99.90
21176;DHT22;10746;50.178;8.186;2023-04-09T01:28:15;6.50;99.90
21176;DHT22;10746;50.178;8.186;2023-04-09T01:30:44;6.40;99.90
21176;DHT22;10746;50.178;8.186;2023-04-09T01:33:14;6.40;99.90
21176;DHT22;10746;50.178;8.186;2023-04-09T01:35:42;6.40;99.90
21176;DHT22;10746;50.178;8.186;2023-04-09T01:38:10;6.40;99.90
21176;DHT22;10746;50.178;8.186;2023-04-09T01:40:39;6.40;99.90
21176;DHT22;10746;50.178;8.186;2023-04-09T01:43:07;6.40;99.90
21176;DHT22;10746;50.178;8.186;2023-04-09T01:45:36;6.40;99.90
21176;DHT22;10746;50.178;8.186;2023-04-09T01:48:04;6.40;99.90
21176;DHT22;10746;50.178;8.186;2023-04-09T01:50:31;6.40;99.90
21176;DHT22;10746;50.178;8.186;2023-04-09T01:52:59;6.40;99.90
21176;DHT22;10746;50.178;8.186;2023-04-09T01:55:25;6.30;99.90
21176;DHT22;10746;50.178;8.186;2023-04-09T01:57:52;6.30;99.90
21176;DHT22;10746;50.178;8.186;2023-04-09T02:00:19;6.10;99.90
21176;DHT22;10746;50.178;8.186;2023-04-09T02:02:52;6.10;99.90
21176;DHT22;10746;50.178;8.186;2023-04-09T02:05:20;6.00;99.90
21176;DHT22;10746;50.178;8.186;2023-04-09T02:07:54;5.90;99.90
21176;DHT22;10746;50.178;8.186;2023-04-09T02:10:24;5.90;99.90
21176;DHT22;10746;50.178;8.186;2023-04-09T02:12:52;5.90;99.90
21176;DHT22;10746;50.178;8.186;2023-04-09T02:15:20;5.80;99.90
21176;DHT22;10746;50.178;8.186;2023-04-09T02:17:49;5.70;99.90
21176;DHT22;10746;50.178;8.186;2023-04-09T02:20:16;5.60;99.90
21176;DHT22;10746;50.178;8.186;2023-04-09T02:22:43;5.80;99.90
21176;DHT22;10746;50.178;8.186;2023-04-09T02:25:10;5.50;99.90
21176;DHT22;10746;50.178;8.186;2023-04-09T02:27:36;5.30;99.90
21176;DHT22;10746;50.178;8.186;2023-04-09T02:30:04;5.30;99.90
21176;DHT22;10746;50.178;8.186;2023-04-09T02:32:31;5.20;99.90
21176;DHT22;10746;50.178;8.186;2023-04-09T02:34:59;5.20;99.90
21176;DHT22;10746;50.178;8.186;2023-04-09T02:37:26;5.10;99.90
21176;DHT22;10746;50.178;8.186;2023-04-09T02:39:52;5.10;99.90
21176;DHT22;10746;50.178;8.186;2023-04-09T02:42:19;5.10;99.90
21176;DHT22;10746;50.178;8.186;2023-04-09T02:44:46;5.10;99.90
21176;DHT22;10746;50.178;8.186;2023-04-09T02:47:13;5.10;99.90
21176;DHT22;10746;50.178;8.186;2023-04-09T02:49:39;5.00;99.90
21176;DHT22;10746;50.178;8.186;2023-04-09T02:52:08;5.00;99.90
21176;DHT22;10746;50.178;8.186;2023-04-09T02:54:35;4.90;99.90
21176;DHT22;10746;50.178;8.186;2023-04-09T02:57:02;4.90;99.90
21176;DHT22;10746;50.178;8.186;2023-04-09T02:59:29;4.90;99.90
21176;DHT22;10746;50.178;8.186;2023-04-09T03:01:57;4.90;99.90
21176;DHT22;10746;50.178;8.186;2023-04-09T03:04:24;4.80;99.90
21176;DHT22;10746;50.178;8.186;2023-04-09T03:06:50;4.80;99.90
21176;DHT22;10746;50.178;8.186;2023-04-09T03:09:18;4.80;99.90
21176;DHT22;10746;50.178;8.186;2023-04-09T03:11:45;4.70;99.90
21176;DHT22;10746;50.178;8.186;2023-04-09T03:14:12;4.60;99.90
21176;DHT22;10746;50.178;8.186;2023-04-09T03:16:39;4.50;99.90
21176;DHT22;10746;50.178;8.186;2023-04-09T03:19:05;4.40;99.90
21176;DHT22;10746;50.178;8.186;2023-04-09T03:21:32;4.30;99.90
21176;DHT22;10746;50.178;8.186;2023-04-09T03:23:59;4.40;99.90
21176;DHT22;10746;50.178;8.186;2023-04-09T03:26:27;4.30;99.90
21176;DHT22;10746;50.178;8.186;2023-04-09T03:29:00;4.30;99.90
21176;DHT22;10746;50.178;8.186;2023-04-09T03:31:27;4.20;99.90
21176;DHT22;10746;50.178;8.186;2023-04-09T03:33:54;4.20;99.90
21176;DHT22;10746;50.178;8.186;2023-04-09T03:36:20;4.20;99.90
21176;DHT22;10746;50.178;8.186;2023-04-09T03:38:47;4.20;99.90
21176;DHT22;10746;50.178;8.186;2023-04-09T03:41:14;4.10;99.90
21176;DHT22;10746;50.178;8.186;2023-04-09T03:43:42;4.00;99.90
21176;DHT22;10746;50.178;8.186;2023-04-09T03:46:12;4.10;99.90
21176;DHT22;10746;50.178;8.186;2023-04-09T03:48:39;4.10;99.90
21176;DHT22;10746;50.178;8.186;2023-04-09T03:51:10;4.10;99.90
21176;DHT22;10746;50.178;8.186;2023-04-09T03:53:37;4.00;99.90
21176;DHT22;10746;50.178;8.186;2023-04-09T03:56:04;3.90;99.90
21176;DHT22;10746;50.178;8.186;2023-04-09T03:58:31;3.90;99.90
21176;DHT22;10746;50.178;8.186;2023-04-09T04:00:59;4.10;99.90
21176;DHT22;10746;50.178;8.186;2023-04-09T04:03:26;3.90;99.90
21176;DHT22;10746;50.178;8.186;2023-04-09T04:05:52;3.70;99.90
21176;DHT22;10746;50.178;8.186;2023-04-09T04:08:19;3.60;99.90
21176;DHT22;10746;50.178;8.186;2023-04-09T04:10:46;3.50;99.90
21176;DHT22;10746;50.178;8.186;2023-04-09T04:13:13;3.40;99.90
21176;DHT22;10746;50.178;8.186;2023-04-09T04:15:39;3.30;99.90
21176;DHT22;10746;50.178;8.186;2023-04-09T04:18:08;3.20;99.90
21176;DHT22;10746;50.178;8.186;2023-04-09T04:20:36;3.00;99.90
21176;DHT22;10746;50.178;8.186;2023-04-09T04:23:03;2.80;99.90
21176;DHT22;10746;50.178;8.186;2023-04-09T04:25:30;2.80;99.90
21176;DHT22;10746;50.178;8.186;2023-04-09T04:27:57;2.80;99.90
21176;DHT22;10746;50.178;8.186;2023-04-09T04:30:23;2.80;99.90
21176;DHT22;10746;50.178;8.186;2023-04-09T04:32:50;2.80;99.90
21176;DHT22;10746;50.178;8.186;2023-04-09T04:35:18;2.80;99.90
21176;DHT22;10746;50.178;8.186;2023-04-09T04:37:48;2.80;99.90
21176;DHT22;10746;50.178;8.186;2023-04-09T04:40:15;2.80;99.90
21176;DHT22;10746;50.178;8.186;2023-04-09T04:42:42;2.80;99.90
21176;DHT22;10746;50.178;8.186;2023-04-09T04:45:09;2.70;99.90
21176;DHT22;10746;50.178;8.186;2023-04-09T04:47:36;2.50;99.90
21176;DHT22;10746;50.178;8.186;2023-04-09T04:50:03;2.50;99.90
21176;DHT22;10746;50.178;8.186;2023-04-09T04:52:31;2.50;99.90
21176;DHT22;10746;50.178;8.186;2023-04-09T04:54:58;2.50;99.90
21176;DHT22;10746;50.178;8.186;2023-04-09T04:57:24;2.50;99.90
21176;DHT22;10746;50.178;8.186;2023-04-09T04:59:51;2.50;99.90
21176;DHT22;10746;50.178;8.186;2023-04-09T05:02:18;2.50;99.90
21176;DHT22;10746;50.178;8.186;2023-04-09T05:04:45;2.50;99.90
21176;DHT22;10746;50.178;8.186;2023-04-09T05:07:11;2.50;99.90
21176;DHT22;10746;50.178;8.186;2023-04-09T05:09:39;2.50;99.90
21176;DHT22;10746;50.178;8.186;2023-04-09T05:12:07;2.60;99.90
21176;DHT22;10746;50.178;8.186;2023-04-09T05:14:34;2.70;99.90
21176;DHT22;10746;50.178;8.186;2023-04-09T05:17:01;3.00;99.90
21176;DHT22;10746;50.178;8.186;2023-04-09T05:19:28;3.30;99.90
21176;DHT22;10746;50.178;8.186;2023-04-09T05:21:55;3.50;99.90
21176;DHT22;10746;50.178;8.186;2023-04-09T05:24:22;3.80;99.90
21176;DHT22;10746;50.178;8.186;2023-04-09T05:26:50;3.90;99.90
21176;DHT22;10746;50.178;8.186;2023-04-09T05:29:16;4.10;99.90
21176;DHT22;10746;50.178;8.186;2023-04-09T05:31:43;4.30;99.90
21176;DHT22;10746;50.178;8.186;2023-04-09T05:34:10;4.50;99.90
21176;DHT22;10746;50.178;8.186;2023-04-09T05:36:37;4.60;99.90
21176;DHT22;10746;50.178;8.186;2023-04-09T05:39:04;4.70;99.90
21176;DHT22;10746;50.178;8.186;2023-04-09T05:41:30;4.90;99.90
21176;DHT22;10746;50.178;8.186;2023-04-09T05:43:59;4.90;99.90
21176;DHT22;10746;50.178;8.186;2023-04-09T05:46:26;5.00;99.90
21176;DHT22;10746;50.178;8.186;2023-04-09T05:48:54;5.10;99.90
21176;DHT22;10746;50.178;8.186;2023-04-09T05:51:21;5.20;99.90
21176;DHT22;10746;50.178;8.186;2023-04-09T05:53:47;5.30;99.90
21176;DHT22;10746;50.178;8.186;2023-04-09T05:56:14;5.50;99.90
21176;DHT22;10746;50.178;8.186;2023-04-09T05:58:41;5.70;99.90
21176;DHT22;10746;50.178;8.186;2023-04-09T06:01:09;5.80;99.90
21176;DHT22;10746;50.178;8.186;2023-04-09T06:03:36;5.90;99.90
21176;DHT22;10746;50.178;8.186;2023-04-09T06:06:03;6.10;99.90
21176;DHT22;10746;50.178;8.186;2023-04-09T06:08:30;6.20;99.90
21176;DHT22;10746;50.178;8.186;2023-04-09T06:10:57;6.20;99.90
21176;DHT22;10746;50.178;8.186;2023-04-09T06:13:24;6.20;99.90
21176;DHT22;10746;50.178;8.186;2023-04-09T06:15:50;6.40;99.90
21176;DHT22;10746;50.178;8.186;2023-04-09T06:18:18;6.60;99.90
21176;DHT22;10746;50.178;8.186;2023-04-09T06:20:45;6.70;99.90
21176;DHT22;10746;50.178;8.186;2023-04-09T06:23:12;7.00;99.90
21176;DHT22;10746;50.178;8.186;2023-04-09T06:25:39;6.90;99.90
21176;DHT22;10746;50.178;8.186;2023-04-09T06:28:06;7.20;99.90
21176;DHT22;10746;50.178;8.186;2023-04-09T06:30:33;7.10;99.90
21176;DHT22;10746;50.178;8.186;2023-04-09T06:33:01;7.30;99.90
21176;DHT22;10746;50.178;8.186;2023-04-09T06:35:29;7.30;99.90
21176;DHT22;10746;50.178;8.186;2023-04-09T06:37:56;7.40;99.90
21176;DHT22;10746;50.178;8.186;2023-04-09T06:40:23;7.80;99.90
21176;DHT22;10746;50.178;8.186;2023-04-09T06:42:49;8.00;99.90
21176;DHT22;10746;50.178;8.186;2023-04-09T06:45:16;8.20;99.90
21176;DHT22;10746;50.178;8.186;2023-04-09T06:47:43;8.30;99.90
21176;DHT22;10746;50.178;8.186;2023-04-09T06:50:10;8.40;99.90
21176;DHT22;10746;50.178;8.186;2023-04-09T06:52:38;8.50;99.90
21176;DHT22;10746;50.178;8.186;2023-04-09T06:55:05;8.60;99.90
21176;DHT22;10746;50.178;8.186;2023-04-09T06:57:32;8.60;99.90
21176;DHT22;10746;50.178;8.186;2023-04-09T06:59:58;8.70;99.90
21176;DHT22;10746;50.178;8.186;2023-04-09T07:02:25;8.60;99.90
21176;DHT22;10746;50.178;8.186;2023-04-09T07:04:52;8.00;99.90
21176;DHT22;10746;50.178;8.186;2023-04-09T07:07:19;8.20;99.90
21176;DHT22;10746;50.178;8.186;2023-04-09T07:09:48;8.00;99.90
21176;DHT22;10746;50.178;8.186;2023-04-09T07:12:25;8.40;99.90
21176;DHT22;10746;50.178;8.186;2023-04-09T07:14:52;8.10;99.90
21176;DHT22;10746;50.178;8.186;2023-04-09T07:17:18;8.00;99.90
21176;DHT22;10746;50.178;8.186;2023-04-09T07:19:45;8.40;99.90
21176;DHT22;10746;50.178;8.186;2023-04-09T07:22:12;7.80;99.90
21176;DHT22;10746;50.178;8.186;2023-04-09T07:24:39;8.10;99.90
21176;DHT22;10746;50.178;8.186;2023-04-09T07:27:07;8.50;99.90
21176;DHT22;10746;50.178;8.186;2023-04-09T07:29:34;8.30;99.90
21176;DHT22;10746;50.178;8.186;2023-04-09T07:32:01;8.20;99.90
21176;DHT22;10746;50.178;8.186;2023-04-09T07:34:28;8.70;99.90
21176;DHT22;10746;50.178;8.186;2023-04-09T07:36:55;8.80;99.90
21176;DHT22;10746;50.178;8.186;2023-04-09T07:39:21;9.30;99.90
21176;DHT22;10746;50.178;8.186;2023-04-09T07:41:48;9.30;99.90
21176;DHT22;10746;50.178;8.186;2023-04-09T07:44:16;9.60;99.90
21176;DHT22;10746;50.178;8.186;2023-04-09T07:46:43;9.30;99.90
21176;DHT22;10746;50.178;8.186;2023-04-09T07:49:10;9.10;99.90
21176;DHT22;10746;50.178;8.186;2023-04-09T07:51:36;8.90;99.90
21176;DHT22;10746;50.178;8.186;2023-04-09T07:54:03;8.90;99.90
21176;DHT22;10746;50.178;8.186;2023-04-09T07:56:30;9.00;99.90
21176;DHT22;10746;50.178;8.186;2023-04-09T07:58:57;8.90;99.90
21176;DHT22;10746;50.178;8.186;2023-04-09T08:01:25;9.40;99.90
21176;DHT22;10746;50.178;8.186;2023-04-09T08:03:52;9.30;99.90
21176;DHT22;10746;50.178;8.186;2023-04-09T08:06:19;9.50;99.90
21176;DHT22;10746;50.178;8.186;2023-04-09T08:08:45;9.40;99.90
21176;DHT22;10746;50.178;8.186;2023-04-09T08:11:12;9.70;99.90
21176;DHT22;10746;50.178;8.186;2023-04-09T08:13:39;9.50;99.90
21176;DHT22;10746;50.178;8.186;2023-04-09T08:16:06;9.30;99.90
21176;DHT22;10746;50.178;8.186;2023-04-09T08:18:34;9.40;99.90
21176;DHT22;10746;50.178;8.186;2023-04-09T08:21:03;9.80;99.90
21176;DHT22;10746;50.178;8.186;2023-04-09T08:23:30;10.80;99.90
21176;DHT22;10746;50.178;8.186;2023-04-09T08:25:57;11.30;99.90
21176;DHT22;10746;50.178;8.186;2023-04-09T08:28:24;11.30;99.90
21176;DHT22;10746;50.178;8.186;2023-04-09T08:30:51;11.40;99.90
21176;DHT22;10746;50.178;8.186;2023-04-09T08:33:17;10.60;99.90
21176;DHT22;10746;50.178;8.186;2023-04-09T08:35:46;10.30;99.90
21176;DHT22;10746;50.178;8.186;2023-04-09T08:38:12;10.00;99.90
21176;DHT22;10746;50.178;8.186;2023-04-09T08:40:40;10.40;99.90
21176;DHT22;10746;50.178;8.186;2023-04-09T08:43:07;11.20;99.90
21176;DHT22;10746;50.178;8.186;2023-04-09T08:45:35;11.60;99.90
21176;DHT22;10746;50.178;8.186;2023-04-09T08:48:03;11.10;99.90
21176;DHT22;10746;50.178;8.186;2023-04-09T08:50:31;10.60;99.90
21176;DHT22;10746;50.178;8.186;2023-04-09T08:53:01;10.40;99.90
21176;DHT22;10746;50.178;8.186;2023-04-09T08:55:28;9.90;99.90
21176;DHT22;10746;50.178;8.186;2023-04-09T08:57:55;10.00;99.90
21176;DHT22;10746;50.178;8.186;2023-04-09T09:00:23;10.00;99.90
21176;DHT22;10746;50.178;8.186;2023-04-09T09:03:03;10.20;99.90
21176;DHT22;10746;50.178;8.186;2023-04-09T09:05:34;9.90;99.90
21176;DHT22;10746;50.178;8.186;2023-04-09T09:08:03;9.60;99.90
21176;DHT22;10746;50.178;8.186;2023-04-09T09:10:39;10.00;99.90
21176;DHT22;10746;50.178;8.186;2023-04-09T09:13:16;10.40;99.90
21176;DHT22;10746;50.178;8.186;2023-04-09T09:15:43;9.80;99.90
21176;DHT22;10746;50.178;8.186;2023-04-09T09:18:12;10.00;99.90
21176;DHT22;10746;50.178;8.186;2023-04-09T09:20:39;10.40;99.90
21176;DHT22;10746;50.178;8.186;2023-04-09T09:23:07;10.10;99.90
21176;DHT22;10746;50.178;8.186;2023-04-09T09:25:37;9.40;99.90
21176;DHT22;10746;50.178;8.186;2023-04-09T09:28:07;10.00;99.90
21176;DHT22;10746;50.178;8.186;2023-04-09T09:30:35;10.10;99.90
21176;DHT22;10746;50.178;8.186;2023-04-09T09:33:04;9.70;99.90
21176;DHT22;10746;50.178;8.186;2023-04-09T09:35:45;10.00;99.90
21176;DHT22;10746;50.178;8.186;2023-04-09T09:38:14;10.40;99.90
21176;DHT22;10746;50.178;8.186;2023-04-09T09:40:41;10.50;99.90
21176;DHT22;10746;50.178;8.186;2023-04-09T09:43:08;10.70;99.90
21176;DHT22;10746;50.178;8.186;2023-04-09T09:45:36;10.70;99.90
21176;DHT22;10746;50.178;8.186;2023-04-09T09:48:03;10.00;99.90
21176;DHT22;10746;50.178;8.186;2023-04-09T09:50:31;9.90;99.90
21176;DHT22;10746;50.178;8.186;2023-04-09T09:53:02;9.90;99.90
21176;DHT22;10746;50.178;8.186;2023-04-09T09:55:32;10.00;99.90
21176;DHT22;10746;50.178;8.186;2023-04-09T09:58:01;10.20;99.90
21176;DHT22;10746;50.178;8.186;2023-04-09T10:00:30;10.70;99.90
21176;DHT22;10746;50.178;8.186;2023-04-09T10:02:59;10.80;99.90
21176;DHT22;10746;50.178;8.186;2023-04-09T10:05:30;10.50;99.90
21176;DHT22;10746;50.178;8.186;2023-04-09T10:07:59;10.40;99.90
21176;DHT22;10746;50.178;8.186;2023-04-09T10:10:31;10.50;99.90
21176;DHT22;10746;50.178;8.186;2023-04-09T10:12:58;10.70;99.90
21176;DHT22;10746;50.178;8.186;2023-04-09T10:15:27;10.00;99.90
21176;DHT22;10746;50.178;8.186;2023-04-09T10:17:55;10.70;99.90
21176;DHT22;10746;50.178;8.186;2023-04-09T10:20:26;11.30;99.90
21176;DHT22;10746;50.178;8.186;2023-04-09T10:22:54;11.70;99.90
21176;DHT22;10746;50.178;8.186;2023-04-09T10:25:22;11.80;99.90
21176;DHT22;10746;50.178;8.186;2023-04-09T10:27:59;11.70;99.90
21176;DHT22;10746;50.178;8.186;2023-04-09T10:30:33;11.30;99.90
21176;DHT22;10746;50.178;8.186;2023-04-09T10:33:10;11.40;99.90
21176;DHT22;10746;50.178;8.186;2023-04-09T10:35:37;11.40;99.90
21176;DHT22;10746;50.178;8.186;2023-04-09T10:38:06;11.20;99.90
21176;DHT22;10746;50.178;8.186;2023-04-09T10:40:34;11.30;99.90
21176;DHT22;10746;50.178;8.186;2023-04-09T10:43:02;11.70;99.90
21176;DHT22;10746;50.178;8.186;2023-04-09T10:45:39;12.00;99.90
21176;DHT22;10746;50.178;8.186;2023-04-09T10:48:10;12.00;99.90
21176;DHT22;10746;50.178;8.186;2023-04-09T10:50:38;11.80;99.90
21176;DHT22;10746;50.178;8.186;2023-04-09T10:53:05;11.60;99.90
21176;DHT22;10746;50.178;8.186;2023-04-09T10:55:34;11.50;99.90
21176;DHT22;10746;50.178;8.186;2023-04-09T10:58:03;10.70;99.90
21176;DHT22;10746;50.178;8.186;2023-04-09T11:00:31;10.20;99.90
21176;DHT22;10746;50.178;8.186;2023-04-09T11:03:09;10.10;99.90
21176;DHT22;10746;50.178;8.186;2023-04-09T11:05:39;10.20;99.90
21176;DHT22;10746;50.178;8.186;2023-04-09T11:08:07;10.20;99.90
21176;DHT22;10746;50.178;8.186;2023-04-09T11:10:35;10.20;99.90
21176;DHT22;10746;50.178;8.186;2023-04-09T11:13:04;10.30;99.90
21176;DHT22;10746;50.178;8.186;2023-04-09T11:15:33;10.40;99.90
21176;DHT22;10746;50.178;8.186;2023-04-09T11:18:00;10.60;99.90
21176;DHT22;10746;50.178;8.186;2023-04-09T11:20:27;10.60;99.90
21176;DHT22;10746;50.178;8.186;2023-04-09T11:22:55;10.90;99.90
21176;DHT22;10746;50.178;8.186;2023-04-09T11:25:24;10.90;99.90
21176;DHT22;10746;50.178;8.186;2023-04-09T11:27:51;10.90;99.90
21176;DHT22;10746;50.178;8.186;2023-04-09T11:30:19;11.40;99.90
21176;DHT22;10746;50.178;8.186;2023-04-09T11:32:47;12.00;99.90
21176;DHT22;10746;50.178;8.186;2023-04-09T11:35:16;12.20;99.90
21176;DHT22;10746;50.178;8.186;2023-04-09T11:37:44;12.40;99.90
21176;DHT22;10746;50.178;8.186;2023-04-09T11:40:14;12.80;99.90
21176;DHT22;10746;50.178;8.186;2023-04-09T11:42:42;13.40;99.90
21176;DHT22;10746;50.178;8.186;2023-04-09T11:45:10;13.10;99.90
21176;DHT22;10746;50.178;8.186;2023-04-09T11:47:40;12.90;99.90
21176;DHT22;10746;50.178;8.186;2023-04-09T11:50:09;12.80;99.90
21176;DHT22;10746;50.178;8.186;2023-04-09T11:52:36;13.20;99.90
21176;DHT22;10746;50.178;8.186;2023-04-09T11:55:05;13.80;99.90
21176;DHT22;10746;50.178;8.186;2023-04-09T11:57:37;14.30;99.90
21176;DHT22;10746;50.178;8.186;2023-04-09T12:00:07;13.70;99.90
21176;DHT22;10746;50.178;8.186;2023-04-09T12:02:41;13.20;99.90
21176;DHT22;10746;50.178;8.186;2023-04-09T12:05:09;12.00;99.90
21176;DHT22;10746;50.178;8.186;2023-04-09T12:07:39;11.60;99.90
21176;DHT22;10746;50.178;8.186;2023-04-09T12:10:07;12.40;99.90
21176;DHT22;10746;50.178;8.186;2023-04-09T12:12:39;12.80;99.90
21176;DHT22;10746;50.178;8.186;2023-04-09T12:15:10;12.60;99.90
21176;DHT22;10746;50.178;8.186;2023-04-09T12:17:37;12.20;99.90
21176;DHT22;10746;50.178;8.186;2023-04-09T12:20:07;11.60;99.90
21176;DHT22;10746;50.178;8.186;2023-04-09T12:22:34;11.20;99.90
21176;DHT22;10746;50.178;8.186;2023-04-09T12:25:05;10.90;99.90
21176;DHT22;10746;50.178;8.186;2023-04-09T12:27:32;10.60;99.90
21176;DHT22;10746;50.178;8.186;2023-04-09T12:29:59;10.70;99.90
21176;DHT22;10746;50.178;8.186;2023-04-09T12:32:26;11.20;99.90
21176;DHT22;10746;50.178;8.186;2023-04-09T12:34:53;11.30;99.90
21176;DHT22;10746;50.178;8.186;2023-04-09T12:37:21;11.50;99.90
21176;DHT22;10746;50.178;8.186;2023-04-09T12:39:48;11.70;99.90
21176;DHT22;10746;50.178;8.186;2023-04-09T12:42:15;12.80;99.90
21176;DHT22;10746;50.178;8.186;2023-04-09T12:44:41;13.00;99.90
21176;DHT22;10746;50.178;8.186;2023-04-09T12:47:08;12.00;99.90
21176;DHT22;10746;50.178;8.186;2023-04-09T12:49:35;12.10;99.90
21176;DHT22;10746;50.178;8.186;2023-04-09T12:52:02;13.00;99.90
21176;DHT22;10746;50.178;8.186;2023-04-09T12:54:30;13.20;99.90
21176;DHT22;10746;50.178;8.186;2023-04-09T12:56:57;12.70;99.90
21176;DHT22;10746;50.178;8.186;2023-04-09T12:59:23;13.00;99.90
21176;DHT22;10746;50.178;8.186;2023-04-09T13:01:50;13.40;99.90
21176;DHT22;10746;50.178;8.186;2023-04-09T13:04:18;13.80;99.90
21176;DHT22;10746;50.178;8.186;2023-04-09T13:06:46;13.40;99.90
21176;DHT22;10746;50.178;8.186;2023-04-09T13:09:15;13.00;99.90
21176;DHT22;10746;50.178;8.186;2023-04-09T13:11:43;12.50;99.90
21176;DHT22;10746;50.178;8.186;2023-04-09T13:14:10;12.20;99.90
21176;DHT22;10746;50.178;8.186;2023-04-09T13:16:38;12.30;99.90
21176;DHT22;10746;50.178;8.186;2023-04-09T13:19:06;12.30;99.90
21176;DHT22;10746;50.178;8.186;2023-04-09T13:21:33;11.70;99.90
21176;DHT22;10746;50.178;8.186;2023-04-09T13:23:59;11.20;99.90
21176;DHT22;10746;50.178;8.186;2023-04-09T13:26:26;11.70;99.90
21176;DHT22;10746;50.178;8.186;2023-04-09T13:28:54;11.80;99.90
21176;DHT22;10746;50.178;8.186;2023-04-09T13:31:21;11.40;99.90
21176;DHT22;10746;50.178;8.186;2023-04-09T13:33:48;11.40;99.90
21176;DHT22;10746;50.178;8.186;2023-04-09T13:36:14;11.40;99.90
21176;DHT22;10746;50.178;8.186;2023-04-09T13:38:41;11.40;99.90
21176;DHT22;10746;50.178;8.186;2023-04-09T13:41:08;11.20;99.90
21176;DHT22;10746;50.178;8.186;2023-04-09T13:43:35;11.20;99.90
21176;DHT22;10746;50.178;8.186;2023-04-09T13:46:03;11.00;99.90
21176;DHT22;10746;50.178;8.186;2023-04-09T13:48:30;11.10;99.90
21176;DHT22;10746;50.178;8.186;2023-04-09T13:50:57;11.10;99.90
21176;DHT22;10746;50.178;8.186;2023-04-09T13:53:23;11.20;99.90
21176;DHT22;10746;50.178;8.186;2023-04-09T13:55:50;11.60;99.90
21176;DHT22;10746;50.178;8.186;2023-04-09T13:58:17;11.60;99.90
21176;DHT22;10746;50.178;8.186;2023-04-09T14:00:44;11.60;99.90
21176;DHT22;10746;50.178;8.186;2023-04-09T14:03:13;11.50;99.90
21176;DHT22;10746;50.178;8.186;2023-04-09T14:05:40;11.90;99.90
21176;DHT22;10746;50.178;8.186;2023-04-09T14:08:07;11.90;99.90
21176;DHT22;10746;50.178;8.186;2023-04-09T14:10:34;11.90;99.90
21176;DHT22;10746;50.178;8.186;2023-04-09T14:13:01;11.90;99.90
21176;DHT22;10746;50.178;8.186;2023-04-09T14:15:31;12.00;99.90
21176;DHT22;10746;50.178;8.186;2023-04-09T14:17:58;12.00;99.90
21176;DHT22;10746;50.178;8.186;2023-04-09T14:20:26;12.30;99.90
21176;DHT22;10746;50.178;8.186;2023-04-09T14:22:53;12.60;99.90
21176;DHT22;10746;50.178;8.186;2023-04-09T14:25:20;12.70;99.90
21176;DHT22;10746;50.178;8.186;2023-04-09T14:27:47;12.40;99.90
21176;DHT22;10746;50.178;8.186;2023-04-09T14:30:13;12.50;99.90
21176;DHT22;10746;50.178;8.186;2023-04-09T14:32:40;13.20;99.90
21176;DHT22;10746;50.178;8.186;2023-04-09T14:35:08;13.90;99.90
21176;DHT22;10746;50.178;8.186;2023-04-09T14:37:36;14.60;99.90
21176;DHT22;10746;50.178;8.186;2023-04-09T14:40:06;15.00;99.90
21176;DHT22;10746;50.178;8.186;2023-04-09T14:42:33;15.30;99.90
21176;DHT22;10746;50.178;8.186;2023-04-09T14:45:00;15.30;99.90
21176;DHT22;10746;50.178;8.186;2023-04-09T14:47:26;15.30;99.90
21176;DHT22;10746;50.178;8.186;2023-04-09T14:49:53;15.90;99.90
21176;DHT22;10746;50.178;8.186;2023-04-09T14:52:20;15.70;99.90
21176;DHT22;10746;50.178;8.186;2023-04-09T14:54:48;15.70;99.90
21176;DHT22;10746;50.178;8.186;2023-04-09T14:57:15;15.90;99.90
21176;DHT22;10746;50.178;8.186;2023-04-09T14:59:42;14.80;99.90
21176;DHT22;10746;50.178;8.186;2023-04-09T15:02:08;15.10;99.90
21176;DHT22;10746;50.178;8.186;2023-04-09T15:04:35;14.90;99.90
21176;DHT22;10746;50.178;8.186;2023-04-09T15:07:02;15.10;99.90
21176;DHT22;10746;50.178;8.186;2023-04-09T15:09:29;15.70;99.90
21176;DHT22;10746;50.178;8.186;2023-04-09T15:11:57;15.90;99.90
21176;DHT22;10746;50.178;8.186;2023-04-09T15:14:27;15.70;99.90
21176;DHT22;10746;50.178;8.186;2023-04-09T15:16:54;16.00;99.90
21176;DHT22;10746;50.178;8.186;2023-04-09T15:19:20;16.60;99.90
21176;DHT22;10746;50.178;8.186;2023-04-09T15:21:47;16.70;99.90
21176;DHT22;10746;50.178;8.186;2023-04-09T15:24:14;16.90;99.90
21176;DHT22;10746;50.178;8.186;2023-04-09T15:26:40;16.70;99.90
21176;DHT22;10746;50.178;8.186;2023-04-09T15:29:09;16.80;99.90
21176;DHT22;10746;50.178;8.186;2023-04-09T15:31:35;16.70;99.90
21176;DHT22;10746;50.178;8.186;2023-04-09T15:34:02;16.70;99.90
21176;DHT22;10746;50.178;8.186;2023-04-09T15:36:29;16.60;99.90
21176;DHT22;10746;50.178;8.186;2023-04-09T15:38:57;16.60;99.90
21176;DHT22;10746;50.178;8.186;2023-04-09T15:41:23;16.10;99.90
21176;DHT22;10746;50.178;8.186;2023-04-09T15:43:51;15.90;99.90